sensor_id;sensor_type;location;lat;lon;timestamp;P1;durP1;ratioP1;P2;durP2;ratioP2
25069;SDS011;13064;48.162;11.536;2023-10-19T00:01:17;26.00;;;18.23;;
25069;SDS011;13064;48.162;11.536;2023-10-19T00:03:45;25.88;;;16.48;;
25069;SDS011;13064;48.162;11.536;2023-10-19T00:06:13;26.30;;;18.48;;
25069;SDS011;13064;48.162;11.536;2023-10-19T00:08:40;22.77;;;15.75;;
25069;SDS011;13064;48.162;11.536;2023-10-19T00:11:08;26.77;;;17.27;;
25069;SDS011;13064;48.162;11.536;2023-10-19T00:13:37;25.88;;;16.80;;
25069;SDS011;13064;48.162;11.536;2023-10-19T00:16:06;27.90;;;17.10;;
25069;SDS011;13064;48.162;11.536;2023-10-19T00:18:44;24.35;;;16.85;;
25069;SDS011;13064;48.162;11.536;2023-10-19T00:21:16;27.80;;;18.50;;
25069;SDS011;13064;48.162;11.536;2023-10-19T00:26:16;26.25;;;17.10;;
25069;SDS011;13064;48.162;11.536;2023-10-19T00:28:58;24.05;;;15.45;;
25069;SDS011;13064;48.162;11.536;2023-10-19T00:31:30;26.90;;;18.38;;
25069;SDS011;13064;48.162;11.536;2023-10-19T00:34:03;25.13;;;17.85;;
25069;SDS011;13064;48.162;11.536;2023-10-19T00:36:31;27.38;;;18.23;;
25069;SDS011;13064;48.162;11.536;2023-10-19T00:38:59;26.08;;;18.75;;
25069;SDS011;13064;48.162;11.536;2023-10-19T00:41:40;29.00;;;18.33;;
25069;SDS011;13064;48.162;11.536;2023-10-19T00:44:09;26.73;;;18.27;;
25069;SDS011;13064;48.162;11.536;2023-10-19T00:46:43;27.42;;;18.05;;
25069;SDS011;13064;48.162;11.536;2023-10-19T00:49:16;27.50;;;18.63;;
25069;SDS011;13064;48.162;11.536;2023-10-19T00:51:45;25.52;;;18.20;;
25069;SDS011;13064;48.162;11.536;2023-10-19T00:54:26;31.55;;;18.92;;
25069;SDS011;13064;48.162;11.536;2023-10-19T00:57:07;27.85;;;18.33;;
25069;SDS011;13064;48.162;11.536;2023-10-19T00:59:40;26.35;;;17.77;;
25069;SDS011;13064;48.162;11.536;2023-10-19T01:02:41;27.03;;;18.87;;
25069;SDS011;13064;48.162;11.536;2023-10-19T01:05:13;26.52;;;18.35;;
25069;SDS011;13064;48.162;11.536;2023-10-19T01:07:41;25.40;;;17.55;;
25069;SDS011;13064;48.162;11.536;2023-10-19T01:10:11;27.48;;;17.98;;
25069;SDS011;13064;48.162;11.536;2023-10-19T01:12:39;26.88;;;18.00;;
25069;SDS011;13064;48.162;11.536;2023-10-19T01:15:10;26.45;;;17.85;;
25069;SDS011;13064;48.162;11.536;2023-10-19T01:17:46;23.67;;;16.73;;
25069;SDS011;13064;48.162;11.536;2023-10-19T01:20:21;25.58;;;17.17;;
25069;SDS011;13064;48.162;11.536;2023-10-19T01:23:01;28.25;;;18.17;;
25069;SDS011;13064;48.162;11.536;2023-10-19T01:28:16;27.58;;;18.15;;
25069;SDS011;13064;48.162;11.536;2023-10-19T01:30:44;23.55;;;16.77;;
25069;SDS011;13064;48.162;11.536;2023-10-19T01:33:18;28.95;;;19.00;;
25069;SDS011;13064;48.162;11.536;2023-10-19T01:35:45;27.27;;;18.38;;
25069;SDS011;13064;48.162;11.536;2023-10-19T01:38:32;24.20;;;17.00;;
25069;SDS011;13064;48.162;11.536;2023-10-19T01:41:00;25.75;;;17.77;;
25069;SDS011;13064;48.162;11.536;2023-10-19T01:43:32;26.27;;;17.55;;
25069;SDS011;13064;48.162;11.536;2023-10-19T01:46:00;28.00;;;18.52;;
25069;SDS011;13064;48.162;11.536;2023-10-19T01:48:31;28.23;;;18.55;;
25069;SDS011;13064;48.162;11.536;2023-10-19T01:51:03;27.05;;;18.02;;
25069;SDS011;13064;48.162;11.536;2023-10-19T01:53:32;26.20;;;17.90;;
25069;SDS011;13064;48.162;11.536;2023-10-19T01:56:01;26.55;;;17.58;;
25069;SDS011;13064;48.162;11.536;2023-10-19T01:58:32;24.50;;;17.40;;
25069;SDS011;13064;48.162;11.536;2023-10-19T02:01:03;28.23;;;18.60;;
25069;SDS011;13064;48.162;11.536;2023-10-19T02:03:41;24.42;;;17.40;;
25069;SDS011;13064;48.162;11.536;2023-10-19T02:06:09;23.95;;;17.02;;
25069;SDS011;13064;48.162;11.536;2023-10-19T02:08:50;23.83;;;17.20;;
25069;SDS011;13064;48.162;11.536;2023-10-19T02:11:23;23.50;;;16.63;;
25069;SDS011;13064;48.162;11.536;2023-10-19T02:13:52;22.98;;;16.33;;
25069;SDS011;13064;48.162;11.536;2023-10-19T02:16:21;25.15;;;17.65;;
25069;SDS011;13064;48.162;11.536;2023-10-19T02:18:49;24.08;;;16.73;;
25069;SDS011;13064;48.162;11.536;2023-10-19T02:21:18;25.77;;;16.95;;
25069;SDS011;13064;48.162;11.536;2023-10-19T02:23:49;25.70;;;18.30;;
25069;SDS011;13064;48.162;11.536;2023-10-19T02:26:19;27.10;;;17.80;;
25069;SDS011;13064;48.162;11.536;2023-10-19T02:28:49;24.88;;;17.98;;
25069;SDS011;13064;48.162;11.536;2023-10-19T02:31:18;26.88;;;17.75;;
25069;SDS011;13064;48.162;11.536;2023-10-19T02:33:50;25.05;;;17.70;;
25069;SDS011;13064;48.162;11.536;2023-10-19T02:36:27;26.95;;;18.02;;
25069;SDS011;13064;48.162;11.536;2023-10-19T02:38:58;27.42;;;17.20;;
25069;SDS011;13064;48.162;11.536;2023-10-19T02:41:26;25.80;;;18.20;;
25069;SDS011;13064;48.162;11.536;2023-10-19T02:43:55;25.25;;;17.45;;
25069;SDS011;13064;48.162;11.536;2023-10-19T02:46:55;24.13;;;16.38;;
25069;SDS011;13064;48.162;11.536;2023-10-19T02:49:29;22.98;;;16.17;;
25069;SDS011;13064;48.162;11.536;2023-10-19T02:51:57;24.13;;;17.15;;
25069;SDS011;13064;48.162;11.536;2023-10-19T02:54:31;23.17;;;16.27;;
25069;SDS011;13064;48.162;11.536;2023-10-19T02:57:02;19.70;;;14.82;;
25069;SDS011;13064;48.162;11.536;2023-10-19T02:59:34;22.00;;;16.05;;
25069;SDS011;13064;48.162;11.536;2023-10-19T03:02:02;22.75;;;15.48;;
25069;SDS011;13064;48.162;11.536;2023-10-19T03:04:30;23.85;;;16.50;;
25069;SDS011;13064;48.162;11.536;2023-10-19T03:06:58;21.42;;;15.43;;
25069;SDS011;13064;48.162;11.536;2023-10-19T03:09:26;25.67;;;17.40;;
25069;SDS011;13064;48.162;11.536;2023-10-19T03:11:54;21.00;;;16.15;;
25069;SDS011;13064;48.162;11.536;2023-10-19T03:14:26;22.70;;;16.70;;
25069;SDS011;13064;48.162;11.536;2023-10-19T03:16:54;25.10;;;16.90;;
25069;SDS011;13064;48.162;11.536;2023-10-19T03:19:22;22.75;;;16.80;;
25069;SDS011;13064;48.162;11.536;2023-10-19T03:21:53;27.17;;;17.37;;
25069;SDS011;13064;48.162;11.536;2023-10-19T03:24:22;23.95;;;17.33;;
25069;SDS011;13064;48.162;11.536;2023-10-19T03:27:02;25.02;;;17.30;;
25069;SDS011;13064;48.162;11.536;2023-10-19T03:29:45;24.73;;;16.85;;
25069;SDS011;13064;48.162;11.536;2023-10-19T03:32:15;23.33;;;16.05;;
25069;SDS011;13064;48.162;11.536;2023-10-19T03:34:44;23.10;;;15.57;;
25069;SDS011;13064;48.162;11.536;2023-10-19T03:37:16;22.00;;;15.32;;
25069;SDS011;13064;48.162;11.536;2023-10-19T03:39:46;23.33;;;17.38;;
25069;SDS011;13064;48.162;11.536;2023-10-19T03:42:14;23.40;;;15.40;;
25069;SDS011;13064;48.162;11.536;2023-10-19T03:44:41;24.27;;;16.23;;
25069;SDS011;13064;48.162;11.536;2023-10-19T03:47:20;20.33;;;13.77;;
25069;SDS011;13064;48.162;11.536;2023-10-19T03:49:52;23.27;;;16.45;;
25069;SDS011;13064;48.162;11.536;2023-10-19T03:52:20;19.83;;;14.35;;
25069;SDS011;13064;48.162;11.536;2023-10-19T03:54:48;19.17;;;14.88;;
25069;SDS011;13064;48.162;11.536;2023-10-19T03:57:16;22.00;;;14.57;;
25069;SDS011;13064;48.162;11.536;2023-10-19T03:59:56;17.85;;;13.32;;
25069;SDS011;13064;48.162;11.536;2023-10-19T04:02:24;21.55;;;14.00;;
25069;SDS011;13064;48.162;11.536;2023-10-19T04:05:02;21.70;;;14.55;;
25069;SDS011;13064;48.162;11.536;2023-10-19T04:07:30;22.50;;;15.65;;
25069;SDS011;13064;48.162;11.536;2023-10-19T04:09:58;18.02;;;14.27;;
25069;SDS011;13064;48.162;11.536;2023-10-19T04:12:39;21.10;;;15.00;;
25069;SDS011;13064;48.162;11.536;2023-10-19T04:15:10;21.75;;;14.13;;
25069;SDS011;13064;48.162;11.536;2023-10-19T04:17:48;18.77;;;13.80;;
25069;SDS011;13064;48.162;11.536;2023-10-19T04:20:16;18.63;;;13.80;;
25069;SDS011;13064;48.162;11.536;2023-10-19T04:22:44;20.58;;;14.52;;
25069;SDS011;13064;48.162;11.536;2023-10-19T04:25:13;17.33;;;12.88;;
25069;SDS011;13064;48.162;11.536;2023-10-19T04:27:42;18.65;;;12.98;;
25069;SDS011;13064;48.162;11.536;2023-10-19T04:30:13;18.42;;;13.25;;
25069;SDS011;13064;48.162;11.536;2023-10-19T04:32:51;27.90;;;13.70;;
25069;SDS011;13064;48.162;11.536;2023-10-19T04:35:19;24.83;;;14.25;;
25069;SDS011;13064;48.162;11.536;2023-10-19T04:37:51;19.60;;;12.90;;
25069;SDS011;13064;48.162;11.536;2023-10-19T04:40:19;17.85;;;12.68;;
25069;SDS011;13064;48.162;11.536;2023-10-19T04:42:48;18.25;;;11.20;;
25069;SDS011;13064;48.162;11.536;2023-10-19T04:45:16;18.13;;;12.32;;
25069;SDS011;13064;48.162;11.536;2023-10-19T04:47:43;18.90;;;12.68;;
25069;SDS011;13064;48.162;11.536;2023-10-19T04:50:11;18.45;;;12.77;;
25069;SDS011;13064;48.162;11.536;2023-10-19T04:52:39;18.42;;;12.95;;
25069;SDS011;13064;48.162;11.536;2023-10-19T04:55:07;15.73;;;12.60;;
25069;SDS011;13064;48.162;11.536;2023-10-19T04:57:35;17.00;;;12.07;;
25069;SDS011;13064;48.162;11.536;2023-10-19T05:00:02;16.15;;;11.88;;
25069;SDS011;13064;48.162;11.536;2023-10-19T05:02:30;17.10;;;12.35;;
25069;SDS011;13064;48.162;11.536;2023-10-19T05:04:58;15.70;;;12.27;;
25069;SDS011;13064;48.162;11.536;2023-10-19T05:07:26;16.75;;;12.07;;
25069;SDS011;13064;48.162;11.536;2023-10-19T05:09:53;15.63;;;12.30;;
25069;SDS011;13064;48.162;11.536;2023-10-19T05:12:21;14.63;;;11.80;;
25069;SDS011;13064;48.162;11.536;2023-10-19T05:14:49;18.80;;;12.77;;
25069;SDS011;13064;48.162;11.536;2023-10-19T05:17:17;15.38;;;11.93;;
25069;SDS011;13064;48.162;11.536;2023-10-19T05:19:47;16.58;;;13.13;;
25069;SDS011;13064;48.162;11.536;2023-10-19T05:22:16;17.98;;;12.13;;
25069;SDS011;13064;48.162;11.536;2023-10-19T05:24:44;17.02;;;12.55;;
25069;SDS011;13064;48.162;11.536;2023-10-19T05:27:12;16.92;;;11.50;;
25069;SDS011;13064;48.162;11.536;2023-10-19T05:29:43;17.52;;;11.35;;
25069;SDS011;13064;48.162;11.536;2023-10-19T05:32:10;15.20;;;11.63;;
25069;SDS011;13064;48.162;11.536;2023-10-19T05:34:38;16.77;;;11.45;;
25069;SDS011;13064;48.162;11.536;2023-10-19T05:37:05;14.32;;;11.07;;
25069;SDS011;13064;48.162;11.536;2023-10-19T05:39:35;18.88;;;11.20;;
25069;SDS011;13064;48.162;11.536;2023-10-19T05:42:03;15.18;;;11.27;;
25069;SDS011;13064;48.162;11.536;2023-10-19T05:44:32;16.38;;;11.65;;
25069;SDS011;13064;48.162;11.536;2023-10-19T05:47:00;15.73;;;11.77;;
25069;SDS011;13064;48.162;11.536;2023-10-19T05:49:29;16.80;;;12.60;;
25069;SDS011;13064;48.162;11.536;2023-10-19T05:51:56;63.42;;;44.65;;
25069;SDS011;13064;48.162;11.536;2023-10-19T05:54:24;15.70;;;11.80;;
25069;SDS011;13064;48.162;11.536;2023-10-19T05:56:52;14.60;;;10.88;;
25069;SDS011;13064;48.162;11.536;2023-10-19T05:59:20;18.92;;;12.18;;
25069;SDS011;13064;48.162;11.536;2023-10-19T06:01:48;16.27;;;11.40;;
25069;SDS011;13064;48.162;11.536;2023-10-19T06:04:16;14.70;;;10.77;;
25069;SDS011;13064;48.162;11.536;2023-10-19T06:06:57;14.07;;;9.73;;
25069;SDS011;13064;48.162;11.536;2023-10-19T06:09:25;17.35;;;10.57;;
25069;SDS011;13064;48.162;11.536;2023-10-19T06:11:56;15.93;;;9.93;;
25069;SDS011;13064;48.162;11.536;2023-10-19T06:14:23;14.93;;;10.25;;
25069;SDS011;13064;48.162;11.536;2023-10-19T06:16:51;15.70;;;10.80;;
25069;SDS011;13064;48.162;11.536;2023-10-19T06:19:19;14.65;;;10.65;;
25069;SDS011;13064;48.162;11.536;2023-10-19T06:21:47;13.90;;;10.20;;
25069;SDS011;13064;48.162;11.536;2023-10-19T06:24:15;13.48;;;10.48;;
25069;SDS011;13064;48.162;11.536;2023-10-19T06:26:42;14.75;;;9.75;;
25069;SDS011;13064;48.162;11.536;2023-10-19T06:29:10;12.68;;;10.20;;
25069;SDS011;13064;48.162;11.536;2023-10-19T06:31:38;15.82;;;10.65;;
25069;SDS011;13064;48.162;11.536;2023-10-19T06:34:06;15.10;;;10.15;;
25069;SDS011;13064;48.162;11.536;2023-10-19T06:36:33;12.15;;;9.68;;
25069;SDS011;13064;48.162;11.536;2023-10-19T06:39:01;13.85;;;10.07;;
25069;SDS011;13064;48.162;11.536;2023-10-19T06:41:32;15.95;;;10.48;;
25069;SDS011;13064;48.162;11.536;2023-10-19T06:44:01;16.95;;;10.00;;
25069;SDS011;13064;48.162;11.536;2023-10-19T06:46:29;14.90;;;10.85;;
25069;SDS011;13064;48.162;11.536;2023-10-19T06:48:58;14.95;;;10.65;;
25069;SDS011;13064;48.162;11.536;2023-10-19T06:51:27;14.35;;;10.27;;
25069;SDS011;13064;48.162;11.536;2023-10-19T06:53:55;13.75;;;10.05;;
25069;SDS011;13064;48.162;11.536;2023-10-19T06:56:24;13.30;;;10.27;;
25069;SDS011;13064;48.162;11.536;2023-10-19T06:58:52;14.13;;;10.32;;
25069;SDS011;13064;48.162;11.536;2023-10-19T07:01:20;12.70;;;10.10;;
25069;SDS011;13064;48.162;11.536;2023-10-19T07:03:52;14.45;;;9.93;;
25069;SDS011;13064;48.162;11.536;2023-10-19T07:06:20;17.13;;;9.73;;
25069;SDS011;13064;48.162;11.536;2023-10-19T07:08:48;12.15;;;8.95;;
25069;SDS011;13064;48.162;11.536;2023-10-19T07:11:15;15.15;;;8.95;;
25069;SDS011;13064;48.162;11.536;2023-10-19T07:13:43;14.02;;;9.65;;
25069;SDS011;13064;48.162;11.536;2023-10-19T07:16:11;17.75;;;9.88;;
25069;SDS011;13064;48.162;11.536;2023-10-19T07:18:39;14.07;;;10.00;;
25069;SDS011;13064;48.162;11.536;2023-10-19T07:21:08;13.20;;;8.80;;
25069;SDS011;13064;48.162;11.536;2023-10-19T07:23:36;12.85;;;9.27;;
25069;SDS011;13064;48.162;11.536;2023-10-19T07:26:04;19.52;;;9.52;;
25069;SDS011;13064;48.162;11.536;2023-10-19T07:28:32;17.52;;;9.45;;
25069;SDS011;13064;48.162;11.536;2023-10-19T07:31:05;13.85;;;9.18;;
25069;SDS011;13064;48.162;11.536;2023-10-19T07:33:41;15.40;;;9.75;;
25069;SDS011;13064;48.162;11.536;2023-10-19T07:36:15;14.98;;;9.57;;
25069;SDS011;13064;48.162;11.536;2023-10-19T07:38:45;17.85;;;9.73;;
25069;SDS011;13064;48.162;11.536;2023-10-19T07:41:14;13.68;;;9.05;;
25069;SDS011;13064;48.162;11.536;2023-10-19T07:43:41;14.75;;;8.30;;
25069;SDS011;13064;48.162;11.536;2023-10-19T07:46:10;13.23;;;8.65;;
25069;SDS011;13064;48.162;11.536;2023-10-19T07:48:38;15.27;;;8.32;;
25069;SDS011;13064;48.162;11.536;2023-10-19T07:51:07;10.20;;;7.75;;
25069;SDS011;13064;48.162;11.536;2023-10-19T07:53:37;12.68;;;8.50;;
25069;SDS011;13064;48.162;11.536;2023-10-19T07:56:05;12.13;;;8.57;;
25069;SDS011;13064;48.162;11.536;2023-10-19T07:58:33;10.07;;;7.03;;
25069;SDS011;13064;48.162;11.536;2023-10-19T08:01:01;12.95;;;7.55;;
25069;SDS011;13064;48.162;11.536;2023-10-19T08:03:29;10.70;;;6.60;;
25069;SDS011;13064;48.162;11.536;2023-10-19T08:05:56;14.50;;;6.75;;
25069;SDS011;13064;48.162;11.536;2023-10-19T08:08:24;10.82;;;6.68;;
25069;SDS011;13064;48.162;11.536;2023-10-19T08:10:52;14.15;;;6.90;;
25069;SDS011;13064;48.162;11.536;2023-10-19T08:13:19;12.10;;;6.75;;
25069;SDS011;13064;48.162;11.536;2023-10-19T08:15:47;12.25;;;6.82;;
25069;SDS011;13064;48.162;11.536;2023-10-19T08:18:14;13.32;;;6.50;;
25069;SDS011;13064;48.162;11.536;2023-10-19T08:20:42;10.98;;;6.15;;
25069;SDS011;13064;48.162;11.536;2023-10-19T08:23:12;9.63;;;6.00;;
25069;SDS011;13064;48.162;11.536;2023-10-19T08:25:49;10.32;;;6.13;;
25069;SDS011;13064;48.162;11.536;2023-10-19T08:28:23;11.05;;;6.60;;
25069;SDS011;13064;48.162;11.536;2023-10-19T08:30:53;10.23;;;6.35;;
25069;SDS011;13064;48.162;11.536;2023-10-19T08:33:24;9.70;;;6.43;;
25069;SDS011;13064;48.162;11.536;2023-10-19T08:35:56;12.48;;;6.00;;
25069;SDS011;13064;48.162;11.536;2023-10-19T08:38:24;9.65;;;6.15;;
25069;SDS011;13064;48.162;11.536;2023-10-19T08:40:52;9.68;;;6.35;;
25069;SDS011;13064;48.162;11.536;2023-10-19T08:43:21;19.45;;;6.70;;
25069;SDS011;13064;48.162;11.536;2023-10-19T08:45:49;11.38;;;5.82;;
25069;SDS011;13064;48.162;11.536;2023-10-19T08:48:17;12.55;;;6.38;;
25069;SDS011;13064;48.162;11.536;2023-10-19T08:50:45;8.40;;;5.60;;
25069;SDS011;13064;48.162;11.536;2023-10-19T08:53:13;12.10;;;6.10;;
25069;SDS011;13064;48.162;11.536;2023-10-19T08:55:41;9.60;;;6.22;;
25069;SDS011;13064;48.162;11.536;2023-10-19T08:58:16;14.70;;;6.00;;
25069;SDS011;13064;48.162;11.536;2023-10-19T09:00:46;11.25;;;6.05;;
25069;SDS011;13064;48.162;11.536;2023-10-19T09:03:15;15.07;;;6.20;;
25069;SDS011;13064;48.162;11.536;2023-10-19T09:05:46;13.60;;;6.18;;
25069;SDS011;13064;48.162;11.536;2023-10-19T09:08:15;10.35;;;5.60;;
25069;SDS011;13064;48.162;11.536;2023-10-19T09:10:44;14.00;;;6.05;;
25069;SDS011;13064;48.162;11.536;2023-10-19T09:13:12;9.68;;;5.57;;
25069;SDS011;13064;48.162;11.536;2023-10-19T09:15:42;10.57;;;6.18;;
25069;SDS011;13064;48.162;11.536;2023-10-19T09:18:13;13.55;;;6.05;;
25069;SDS011;13064;48.162;11.536;2023-10-19T09:20:45;13.45;;;6.63;;
25069;SDS011;13064;48.162;11.536;2023-10-19T09:23:21;12.07;;;6.57;;
25069;SDS011;13064;48.162;11.536;2023-10-19T09:25:49;14.98;;;6.88;;
25069;SDS011;13064;48.162;11.536;2023-10-19T09:28:20;14.65;;;6.97;;
25069;SDS011;13064;48.162;11.536;2023-10-19T09:30:48;14.88;;;7.63;;
25069;SDS011;13064;48.162;11.536;2023-10-19T09:33:17;16.13;;;7.43;;
25069;SDS011;13064;48.162;11.536;2023-10-19T09:35:45;15.38;;;7.53;;
25069;SDS011;13064;48.162;11.536;2023-10-19T09:38:20;13.00;;;5.88;;
25069;SDS011;13064;48.162;11.536;2023-10-19T09:40:54;12.20;;;6.43;;
25069;SDS011;13064;48.162;11.536;2023-10-19T09:43:24;12.02;;;6.10;;
25069;SDS011;13064;48.162;11.536;2023-10-19T09:45:53;9.18;;;6.22;;
25069;SDS011;13064;48.162;11.536;2023-10-19T09:48:27;14.40;;;5.75;;
25069;SDS011;13064;48.162;11.536;2023-10-19T09:50:55;10.95;;;5.93;;
25069;SDS011;13064;48.162;11.536;2023-10-19T09:53:25;8.98;;;4.70;;
25069;SDS011;13064;48.162;11.536;2023-10-19T09:55:54;9.70;;;4.90;;
25069;SDS011;13064;48.162;11.536;2023-10-19T09:58:31;7.90;;;4.25;;
25069;SDS011;13064;48.162;11.536;2023-10-19T10:01:01;11.13;;;4.38;;
25069;SDS011;13064;48.162;11.536;2023-10-19T10:06:16;7.30;;;4.55;;
25069;SDS011;13064;48.162;11.536;2023-10-19T10:08:47;7.95;;;4.38;;
25069;SDS011;13064;48.162;11.536;2023-10-19T10:11:16;12.02;;;5.05;;
25069;SDS011;13064;48.162;11.536;2023-10-19T10:13:45;10.57;;;4.45;;
25069;SDS011;13064;48.162;11.536;2023-10-19T10:16:13;7.18;;;4.20;;
25069;SDS011;13064;48.162;11.536;2023-10-19T10:18:45;12.43;;;5.68;;
25069;SDS011;13064;48.162;11.536;2023-10-19T10:21:15;11.45;;;7.20;;
25069;SDS011;13064;48.162;11.536;2023-10-19T10:26:11;12.93;;;7.32;;
25069;SDS011;13064;48.162;11.536;2023-10-19T10:28:41;10.13;;;7.18;;
25069;SDS011;13064;48.162;11.536;2023-10-19T10:31:31;13.60;;;7.07;;
25069;SDS011;13064;48.162;11.536;2023-10-19T10:33:58;13.27;;;6.40;;
25069;SDS011;13064;48.162;11.536;2023-10-19T10:36:26;11.32;;;6.20;;
25069;SDS011;13064;48.162;11.536;2023-10-19T10:38:53;11.90;;;6.30;;
25069;SDS011;13064;48.162;11.536;2023-10-19T10:41:31;12.77;;;6.32;;
25069;SDS011;13064;48.162;11.536;2023-10-19T10:43:59;10.75;;;6.65;;
25069;SDS011;13064;48.162;11.536;2023-10-19T10:46:27;10.05;;;6.90;;
25069;SDS011;13064;48.162;11.536;2023-10-19T10:48:59;10.07;;;5.57;;
25069;SDS011;13064;48.162;11.536;2023-10-19T10:51:28;9.10;;;5.07;;
25069;SDS011;13064;48.162;11.536;2023-10-19T10:53:57;6.47;;;4.43;;
25069;SDS011;13064;48.162;11.536;2023-10-19T10:56:25;6.68;;;3.67;;
25069;SDS011;13064;48.162;11.536;2023-10-19T10:58:53;4.82;;;3.40;;
25069;SDS011;13064;48.162;11.536;2023-10-19T11:01:28;6.00;;;3.60;;
25069;SDS011;13064;48.162;11.536;2023-10-19T11:04:06;4.72;;;3.72;;
25069;SDS011;13064;48.162;11.536;2023-10-19T11:06:45;12.10;;;3.80;;
25069;SDS011;13064;48.162;11.536;2023-10-19T11:09:13;14.85;;;5.45;;
25069;SDS011;13064;48.162;11.536;2023-10-19T11:11:45;10.25;;;5.78;;
25069;SDS011;13064;48.162;11.536;2023-10-19T11:14:13;15.70;;;5.55;;
25069;SDS011;13064;48.162;11.536;2023-10-19T11:16:41;15.98;;;7.05;;
25069;SDS011;13064;48.162;11.536;2023-10-19T11:19:10;11.63;;;6.25;;
25069;SDS011;13064;48.162;11.536;2023-10-19T11:21:38;12.05;;;6.55;;
25069;SDS011;13064;48.162;11.536;2023-10-19T11:24:24;13.57;;;6.90;;
25069;SDS011;13064;48.162;11.536;2023-10-19T11:26:52;13.23;;;7.05;;
25069;SDS011;13064;48.162;11.536;2023-10-19T11:29:22;15.77;;;7.05;;
25069;SDS011;13064;48.162;11.536;2023-10-19T11:31:57;10.90;;;4.95;;
25069;SDS011;13064;48.162;11.536;2023-10-19T11:34:26;6.68;;;3.97;;
25069;SDS011;13064;48.162;11.536;2023-10-19T11:36:56;13.05;;;6.55;;
25069;SDS011;13064;48.162;11.536;2023-10-19T11:39:26;18.63;;;6.95;;
25069;SDS011;13064;48.162;11.536;2023-10-19T11:41:55;12.90;;;6.57;;
25069;SDS011;13064;48.162;11.536;2023-10-19T11:44:22;15.10;;;6.72;;
25069;SDS011;13064;48.162;11.536;2023-10-19T11:46:50;11.05;;;6.55;;
25069;SDS011;13064;48.162;11.536;2023-10-19T11:49:18;13.02;;;6.18;;
25069;SDS011;13064;48.162;11.536;2023-10-19T11:51:49;10.90;;;6.50;;
25069;SDS011;13064;48.162;11.536;2023-10-19T11:54:17;11.82;;;6.35;;
25069;SDS011;13064;48.162;11.536;2023-10-19T11:56:45;12.10;;;6.20;;
25069;SDS011;13064;48.162;11.536;2023-10-19T11:59:12;13.65;;;6.55;;
25069;SDS011;13064;48.162;11.536;2023-10-19T12:01:41;15.38;;;6.78;;
25069;SDS011;13064;48.162;11.536;2023-10-19T12:04:09;9.82;;;6.18;;
25069;SDS011;13064;48.162;11.536;2023-10-19T12:06:37;7.72;;;4.95;;
25069;SDS011;13064;48.162;11.536;2023-10-19T12:09:05;10.77;;;5.55;;
25069;SDS011;13064;48.162;11.536;2023-10-19T12:11:42;8.88;;;5.40;;
25069;SDS011;13064;48.162;11.536;2023-10-19T12:14:14;9.75;;;5.22;;
25069;SDS011;13064;48.162;11.536;2023-10-19T12:16:41;9.27;;;5.28;;
25069;SDS011;13064;48.162;11.536;2023-10-19T12:19:09;9.32;;;4.68;;
25069;SDS011;13064;48.162;11.536;2023-10-19T12:21:37;9.73;;;4.95;;
25069;SDS011;13064;48.162;11.536;2023-10-19T12:24:07;10.93;;;5.55;;
25069;SDS011;13064;48.162;11.536;2023-10-19T12:26:35;9.95;;;4.68;;
25069;SDS011;13064;48.162;11.536;2023-10-19T12:29:03;11.30;;;4.45;;
25069;SDS011;13064;48.162;11.536;2023-10-19T12:31:34;10.43;;;4.28;;
25069;SDS011;13064;48.162;11.536;2023-10-19T12:34:01;8.95;;;4.75;;
25069;SDS011;13064;48.162;11.536;2023-10-19T12:36:29;12.13;;;5.05;;
25069;SDS011;13064;48.162;11.536;2023-10-19T12:39:01;10.15;;;5.57;;
25069;SDS011;13064;48.162;11.536;2023-10-19T12:41:33;12.00;;;5.50;;
25069;SDS011;13064;48.162;11.536;2023-10-19T12:44:00;12.98;;;5.50;;
25069;SDS011;13064;48.162;11.536;2023-10-19T12:46:34;12.07;;;5.60;;
25069;SDS011;13064;48.162;11.536;2023-10-19T12:49:05;10.18;;;5.28;;
25069;SDS011;13064;48.162;11.536;2023-10-19T12:51:40;13.02;;;5.72;;
25069;SDS011;13064;48.162;11.536;2023-10-19T12:54:12;7.78;;;4.97;;
25069;SDS011;13064;48.162;11.536;2023-10-19T12:56:40;9.75;;;4.72;;
25069;SDS011;13064;48.162;11.536;2023-10-19T12:59:08;8.63;;;4.53;;
25069;SDS011;13064;48.162;11.536;2023-10-19T13:01:36;8.27;;;4.25;;
25069;SDS011;13064;48.162;11.536;2023-10-19T13:04:04;8.38;;;5.10;;
25069;SDS011;13064;48.162;11.536;2023-10-19T13:06:43;7.03;;;3.95;;
25069;SDS011;13064;48.162;11.536;2023-10-19T13:09:14;7.00;;;3.28;;
25069;SDS011;13064;48.162;11.536;2023-10-19T13:11:48;4.63;;;2.80;;
25069;SDS011;13064;48.162;11.536;2023-10-19T13:14:18;4.68;;;2.80;;
25069;SDS011;13064;48.162;11.536;2023-10-19T13:16:46;4.68;;;2.88;;
25069;SDS011;13064;48.162;11.536;2023-10-19T13:19:17;6.18;;;2.85;;
25069;SDS011;13064;48.162;11.536;2023-10-19T13:21:47;6.05;;;3.33;;
25069;SDS011;13064;48.162;11.536;2023-10-19T13:24:16;5.93;;;3.17;;
25069;SDS011;13064;48.162;11.536;2023-10-19T13:26:44;7.00;;;2.88;;
25069;SDS011;13064;48.162;11.536;2023-10-19T13:29:13;3.92;;;2.95;;
25069;SDS011;13064;48.162;11.536;2023-10-19T13:31:41;7.78;;;3.10;;
25069;SDS011;13064;48.162;11.536;2023-10-19T13:34:16;6.90;;;2.92;;
25069;SDS011;13064;48.162;11.536;2023-10-19T13:36:43;5.38;;;3.08;;
25069;SDS011;13064;48.162;11.536;2023-10-19T13:39:12;6.55;;;3.35;;
25069;SDS011;13064;48.162;11.536;2023-10-19T13:41:43;5.25;;;2.85;;
25069;SDS011;13064;48.162;11.536;2023-10-19T13:44:11;4.32;;;3.00;;
25069;SDS011;13064;48.162;11.536;2023-10-19T13:46:39;7.07;;;3.05;;
25069;SDS011;13064;48.162;11.536;2023-10-19T13:49:06;6.38;;;3.10;;
25069;SDS011;13064;48.162;11.536;2023-10-19T13:51:36;8.30;;;3.15;;
25069;SDS011;13064;48.162;11.536;2023-10-19T13:54:05;6.88;;;3.30;;
25069;SDS011;13064;48.162;11.536;2023-10-19T13:56:33;5.47;;;3.25;;
25069;SDS011;13064;48.162;11.536;2023-10-19T13:59:02;5.18;;;3.15;;
25069;SDS011;13064;48.162;11.536;2023-10-19T14:01:29;5.95;;;2.97;;
25069;SDS011;13064;48.162;11.536;2023-10-19T14:03:57;4.35;;;3.00;;
25069;SDS011;13064;48.162;11.536;2023-10-19T14:06:25;11.65;;;3.55;;
25069;SDS011;13064;48.162;11.536;2023-10-19T14:08:53;5.00;;;2.67;;
25069;SDS011;13064;48.162;11.536;2023-10-19T14:11:21;6.13;;;3.20;;
25069;SDS011;13064;48.162;11.536;2023-10-19T14:13:49;5.78;;;2.90;;
25069;SDS011;13064;48.162;11.536;2023-10-19T14:16:19;3.58;;;2.25;;
25069;SDS011;13064;48.162;11.536;2023-10-19T14:18:47;7.20;;;3.08;;
25069;SDS011;13064;48.162;11.536;2023-10-19T14:21:15;4.93;;;2.80;;
25069;SDS011;13064;48.162;11.536;2023-10-19T14:23:43;3.47;;;2.72;;
25069;SDS011;13064;48.162;11.536;2023-10-19T14:26:12;5.18;;;3.35;;
25069;SDS011;13064;48.162;11.536;2023-10-19T14:28:41;10.05;;;3.72;;
25069;SDS011;13064;48.162;11.536;2023-10-19T14:31:08;8.48;;;4.03;;
25069;SDS011;13064;48.162;11.536;2023-10-19T14:33:37;6.00;;;3.42;;
25069;SDS011;13064;48.162;11.536;2023-10-19T14:36:05;8.68;;;5.30;;
25069;SDS011;13064;48.162;11.536;2023-10-19T14:38:34;8.15;;;4.25;;
25069;SDS011;13064;48.162;11.536;2023-10-19T14:41:03;7.97;;;4.95;;
25069;SDS011;13064;48.162;11.536;2023-10-19T14:43:31;10.18;;;5.35;;
25069;SDS011;13064;48.162;11.536;2023-10-19T14:45:59;8.60;;;5.32;;